createdAt,value
2018-08-17T00:02:20.780Z,6.60
2018-08-17T00:04:49.236Z,6.90
2018-08-17T00:07:17.746Z,6.93
2018-08-17T00:09:46.231Z,6.97
2018-08-17T00:12:14.777Z,6.40
2018-08-17T00:14:43.245Z,6.70
2018-08-17T00:17:11.669Z,6.83
2018-08-17T00:19:40.130Z,7.63
2018-08-17T00:22:08.639Z,7.23
2018-08-17T00:24:37.094Z,7.37
2018-08-17T00:27:05.565Z,6.63
2018-08-17T00:29:34.024Z,7.30
2018-08-17T00:32:02.502Z,7.23
2018-08-17T00:34:30.981Z,6.73
2018-08-17T00:36:59.450Z,7.07
2018-08-17T00:39:27.918Z,6.87
2018-08-17T00:41:56.368Z,7.00
2018-08-17T00:44:24.878Z,7.20
2018-08-17T00:46:53.345Z,7.83
2018-08-17T00:49:21.809Z,7.50
2018-08-17T00:51:50.279Z,7.60
2018-08-17T00:54:18.785Z,7.43
2018-08-17T00:56:47.214Z,6.97
2018-08-17T00:59:15.717Z,7.17
2018-08-17T01:01:44.187Z,7.17
2018-08-17T01:04:12.641Z,7.73
2018-08-17T01:06:41.066Z,7.47
2018-08-17T01:09:10.262Z,7.30
2018-08-17T01:11:38.722Z,7.27
2018-08-17T01:14:07.217Z,7.27
2018-08-17T01:16:35.642Z,6.90
2018-08-17T01:19:04.132Z,7.63
2018-08-17T01:21:32.558Z,7.80
2018-08-17T01:24:01.078Z,7.37
2018-08-17T01:26:29.499Z,8.43
2018-08-17T01:28:57.950Z,7.97
2018-08-17T01:31:26.366Z,7.27
2018-08-17T01:33:54.859Z,7.57
2018-08-17T01:36:23.279Z,7.80
2018-08-17T01:38:51.713Z,8.47
2018-08-17T01:41:20.142Z,7.47
2018-08-17T01:43:48.586Z,7.40
2018-08-17T01:46:17.013Z,7.53
2018-08-17T01:48:45.441Z,8.13
2018-08-17T01:51:13.897Z,7.57
2018-08-17T01:53:42.330Z,7.90
2018-08-17T01:56:10.776Z,8.60
2018-08-17T01:58:39.250Z,8.03
2018-08-17T02:01:07.677Z,7.97
2018-08-17T02:03:36.130Z,8.57
2018-08-17T02:06:04.606Z,8.57
2018-08-17T02:08:33.094Z,8.70
2018-08-17T02:11:01.530Z,8.87
2018-08-17T02:13:29.981Z,8.43
2018-08-17T02:15:58.422Z,9.17
2018-08-17T02:18:26.853Z,7.60
2018-08-17T02:20:55.289Z,8.70
2018-08-17T02:23:23.724Z,8.43
2018-08-17T02:25:52.163Z,8.10
2018-08-17T02:28:20.618Z,8.10
2018-08-17T02:30:49.047Z,7.77
2018-08-17T02:33:17.485Z,8.10
2018-08-17T02:35:45.941Z,8.30
2018-08-17T02:38:14.371Z,8.97
2018-08-17T02:40:42.826Z,8.00
2018-08-17T02:43:11.265Z,8.43
2018-08-17T02:45:39.705Z,9.00
2018-08-17T02:48:08.139Z,8.77
2018-08-17T02:50:36.581Z,8.63
2018-08-17T02:53:05.283Z,8.90
2018-08-17T02:55:33.723Z,8.57
2018-08-17T02:58:02.162Z,8.33
2018-08-17T03:00:30.597Z,8.37
2018-08-17T03:02:59.071Z,8.50
2018-08-17T03:05:27.508Z,8.67
2018-08-17T03:07:55.920Z,9.10
2018-08-17T03:10:24.354Z,8.50
2018-08-17T03:12:52.785Z,8.77
2018-08-17T03:15:21.231Z,9.33
2018-08-17T03:17:49.662Z,9.00
2018-08-17T03:20:18.098Z,8.63
2018-08-17T03:22:46.512Z,8.97
2018-08-17T03:25:14.945Z,9.03
2018-08-17T03:27:43.371Z,9.00
2018-08-17T03:30:11.810Z,9.27
2018-08-17T03:32:40.245Z,8.37
2018-08-17T03:35:08.698Z,8.83
2018-08-17T03:37:37.114Z,10.20
2018-08-17T03:40:05.609Z,8.60
2018-08-17T03:42:34.327Z,8.57
2018-08-17T03:45:02.787Z,10.17
2018-08-17T03:47:31.208Z,9.53
2018-08-17T03:49:59.649Z,9.23
2018-08-17T03:52:28.079Z,9.53
2018-08-17T03:54:56.506Z,9.57
2018-08-17T03:57:24.950Z,9.87
2018-08-17T03:59:53.405Z,9.27
2018-08-17T04:02:21.851Z,10.03
2018-08-17T04:04:50.301Z,10.10
2018-08-17T04:07:18.761Z,10.17
2018-08-17T04:09:47.230Z,9.43
2018-08-17T04:12:15.657Z,9.73
2018-08-17T04:14:44.097Z,9.23
2018-08-17T04:17:12.505Z,8.73
2018-08-17T04:19:40.946Z,9.03
2018-08-17T04:22:09.402Z,9.23
2018-08-17T04:24:37.851Z,9.07
2018-08-17T04:27:06.277Z,10.00
2018-08-17T04:29:34.728Z,9.73
2018-08-17T04:32:03.161Z,9.90
2018-08-17T04:34:31.620Z,9.30
2018-08-17T04:37:00.050Z,9.47
2018-08-17T04:39:28.490Z,9.33
2018-08-17T04:41:56.954Z,9.53
2018-08-17T04:44:25.398Z,9.53
2018-08-17T04:46:53.822Z,9.57
2018-08-17T04:49:22.280Z,9.30
2018-08-17T04:51:50.685Z,9.13
2018-08-17T04:54:19.117Z,9.83
2018-08-17T04:56:47.585Z,9.10
2018-08-17T04:59:16.045Z,9.17
2018-08-17T05:01:44.470Z,9.13
2018-08-17T05:04:12.879Z,9.10
2018-08-17T05:06:41.329Z,9.03
2018-08-17T05:09:09.754Z,9.37
2018-08-17T05:11:38.218Z,9.90
2018-08-17T05:14:06.717Z,10.00
2018-08-17T05:16:35.183Z,9.80
2018-08-17T05:19:03.610Z,8.87
2018-08-17T05:21:32.076Z,9.17
2018-08-17T05:24:00.502Z,9.33
2018-08-17T05:26:28.983Z,8.67
2018-08-17T05:28:57.429Z,9.13
2018-08-17T05:31:25.887Z,8.87
2018-08-17T05:33:54.329Z,8.47
2018-08-17T05:36:22.809Z,8.50
2018-08-17T05:38:51.209Z,7.70
2018-08-17T05:41:19.681Z,8.00
2018-08-17T05:43:48.110Z,8.57
2018-08-17T05:46:16.547Z,8.40
2018-08-17T05:48:44.972Z,8.03
2018-08-17T05:51:13.441Z,8.17
2018-08-17T05:53:41.898Z,8.37
2018-08-17T05:56:10.360Z,8.03
2018-08-17T05:58:38.822Z,7.53
2018-08-17T06:01:07.329Z,7.43
2018-08-17T06:03:35.753Z,7.70
2018-08-17T06:06:04.222Z,7.90
2018-08-17T06:08:32.695Z,7.90
2018-08-17T06:11:01.204Z,8.20
2018-08-17T06:13:29.570Z,7.90
2018-08-17T06:15:58.045Z,8.03
2018-08-17T06:18:26.459Z,7.17
2018-08-17T06:20:54.929Z,7.37
2018-08-17T06:23:23.387Z,8.00
2018-08-17T06:25:51.847Z,7.63
2018-08-17T06:28:20.257Z,7.07
2018-08-17T06:30:48.701Z,7.57
2018-08-17T06:33:17.171Z,7.07
2018-08-17T06:35:45.638Z,7.53
2018-08-17T06:38:14.070Z,7.13
2018-08-17T06:40:42.693Z,6.83
2018-08-17T06:43:11.114Z,8.53
2018-08-17T06:45:39.578Z,8.03
2018-08-17T06:48:08.066Z,8.07
2018-08-17T06:50:36.544Z,7.67
2018-08-17T06:53:05.028Z,7.00
2018-08-17T06:55:33.486Z,7.37
2018-08-17T06:58:01.969Z,7.73
2018-08-17T07:00:30.437Z,8.70
2018-08-17T07:02:58.898Z,8.70
2018-08-17T07:05:27.325Z,7.93
2018-08-17T07:07:56.241Z,8.47
2018-08-17T07:10:24.691Z,7.77
2018-08-17T07:12:53.182Z,7.30
2018-08-17T07:15:21.638Z,7.87
2018-08-17T07:17:50.083Z,7.50
2018-08-17T07:20:18.565Z,7.33
2018-08-17T07:22:47.025Z,7.57
2018-08-17T07:25:15.457Z,7.00
2018-08-17T07:27:43.919Z,7.87
2018-08-17T07:30:12.366Z,7.50
2018-08-17T07:32:40.829Z,6.90
2018-08-17T07:35:10.139Z,7.17
2018-08-17T07:37:38.591Z,7.30
2018-08-17T07:40:07.317Z,7.27
2018-08-17T07:42:35.790Z,7.53
2018-08-17T07:45:04.762Z,7.07
2018-08-17T07:47:33.206Z,8.10
2018-08-17T07:50:01.660Z,8.60
2018-08-17T07:52:30.227Z,9.30
2018-08-17T07:54:58.665Z,8.53
2018-08-17T07:57:27.150Z,9.50
2018-08-17T07:59:55.566Z,9.90
2018-08-17T08:02:24.021Z,8.87
2018-08-17T08:04:52.477Z,10.63
2018-08-17T08:07:20.922Z,10.53
2018-08-17T08:09:49.383Z,10.83
2018-08-17T08:12:17.830Z,12.23
2018-08-17T08:14:46.271Z,12.03
2018-08-17T08:17:14.721Z,12.20
2018-08-17T08:19:43.138Z,12.60
2018-08-17T08:22:11.613Z,12.37
2018-08-17T08:24:40.122Z,11.80
2018-08-17T08:27:08.865Z,12.13
2018-08-17T08:29:37.302Z,11.23
2018-08-17T08:32:05.793Z,12.17
2018-08-17T08:34:34.242Z,12.10
2018-08-17T08:37:02.700Z,12.90
2018-08-17T08:39:31.142Z,12.93
2018-08-17T08:41:59.587Z,12.20
2018-08-17T08:44:28.014Z,15.83
2018-08-17T08:46:56.486Z,15.73
2018-08-17T08:49:24.902Z,17.20
2018-08-17T08:51:53.356Z,15.77
2018-08-17T08:54:21.785Z,17.13
2018-08-17T08:56:50.237Z,17.13
2018-08-17T08:59:18.674Z,15.90
2018-08-17T09:01:47.148Z,17.47
2018-08-17T09:04:15.577Z,17.27
2018-08-17T09:06:44.022Z,17.40
2018-08-17T09:09:12.459Z,18.73
2018-08-17T09:11:40.898Z,15.47
2018-08-17T09:14:09.373Z,17.33
2018-08-17T09:16:37.817Z,17.23
2018-08-17T09:19:06.457Z,20.20
2018-08-17T09:21:34.934Z,20.23
2018-08-17T09:24:03.381Z,18.50
2018-08-17T09:26:31.898Z,18.30
2018-08-17T09:29:00.355Z,19.67
2018-08-17T09:31:28.779Z,18.83
2018-08-17T09:33:57.250Z,21.37
2018-08-17T09:36:25.696Z,20.90
2018-08-17T09:38:54.171Z,19.60
2018-08-17T09:41:22.606Z,20.30
2018-08-17T09:43:51.046Z,20.93
2018-08-17T09:46:19.499Z,17.23
2018-08-17T09:48:47.963Z,20.47
2018-08-17T09:51:16.432Z,20.37
2018-08-17T09:53:44.891Z,19.60
2018-08-17T09:56:13.319Z,19.93
2018-08-17T09:58:41.825Z,18.60
2018-08-17T10:01:15.597Z,19.63
2018-08-17T10:03:48.336Z,17.23
2018-08-17T10:07:24.582Z,16.47
2018-08-17T10:09:55.097Z,17.60
2018-08-17T10:12:23.549Z,18.60
2018-08-17T10:14:51.973Z,18.40
2018-08-17T10:17:20.402Z,19.53
2018-08-17T10:19:48.833Z,16.43
2018-08-17T10:22:17.258Z,16.80
2018-08-17T10:24:45.698Z,17.30
2018-08-17T10:27:14.131Z,17.03
2018-08-17T10:29:42.601Z,18.13
2018-08-17T10:32:11.085Z,17.27
2018-08-17T10:34:39.569Z,16.13
2018-08-17T10:37:08.438Z,14.53
2018-08-17T10:39:36.885Z,15.00
2018-08-17T10:42:05.374Z,13.43
2018-08-17T10:44:33.862Z,15.73
2018-08-17T10:47:02.353Z,12.87
2018-08-17T10:49:30.785Z,14.50
2018-08-17T10:51:59.229Z,13.30
2018-08-17T10:54:27.686Z,13.10
2018-08-17T10:56:56.186Z,13.23
2018-08-17T10:59:24.653Z,14.33
2018-08-17T11:01:53.081Z,13.73
2018-08-17T11:04:21.517Z,13.70
2018-08-17T11:06:49.933Z,13.20
2018-08-17T11:09:18.382Z,13.23
2018-08-17T11:11:46.808Z,12.70
2018-08-17T11:14:15.248Z,12.30
2018-08-17T11:16:43.704Z,11.70
2018-08-17T11:19:12.147Z,11.73
2018-08-17T11:21:40.587Z,11.50
2018-08-17T11:24:09.026Z,10.67
2018-08-17T11:26:38.204Z,11.70
2018-08-17T11:29:06.693Z,11.40
2018-08-17T11:31:35.154Z,12.27
2018-08-17T11:34:03.620Z,11.67
2018-08-17T11:36:32.062Z,10.17
2018-08-17T11:39:00.506Z,11.17
2018-08-17T11:41:29.124Z,10.03
2018-08-17T11:44:00.344Z,10.23
2018-08-17T11:46:28.787Z,11.67
2018-08-17T11:48:57.250Z,10.73
2018-08-17T11:51:25.677Z,11.27
2018-08-17T11:53:54.211Z,10.60
2018-08-17T11:56:22.575Z,10.60
2018-08-17T11:58:51.034Z,9.80
2018-08-17T12:01:24.638Z,10.53
2018-08-17T12:03:53.098Z,9.93
2018-08-17T12:06:21.514Z,9.27
2018-08-17T12:08:49.926Z,9.80
2018-08-17T12:11:18.370Z,9.10
2018-08-17T12:13:46.793Z,8.67
2018-08-17T12:16:15.230Z,7.67
2018-08-17T12:18:43.691Z,7.77
2018-08-17T12:21:12.110Z,7.40
2018-08-17T12:23:40.526Z,6.83
2018-08-17T12:26:08.990Z,7.50
2018-08-17T12:28:37.418Z,7.40
2018-08-17T12:31:05.993Z,6.87
2018-08-17T12:33:34.401Z,6.87
2018-08-17T12:36:02.941Z,7.47
2018-08-17T12:38:31.417Z,6.43
2018-08-17T12:40:59.877Z,5.97
2018-08-17T12:43:30.965Z,6.23
2018-08-17T12:45:59.469Z,6.63
2018-08-17T12:48:27.901Z,6.23
2018-08-17T12:51:00.537Z,5.93
2018-08-17T12:53:28.974Z,6.00
2018-08-17T12:55:57.394Z,7.23
2018-08-17T12:58:25.834Z,6.90
2018-08-17T13:00:54.294Z,6.83
2018-08-17T13:03:22.719Z,6.17
2018-08-17T13:05:51.173Z,5.63
2018-08-17T13:08:19.582Z,5.70
2018-08-17T13:10:48.077Z,5.77
2018-08-17T13:13:16.466Z,4.87
2018-08-17T13:15:51.116Z,5.70
2018-08-17T13:18:24.226Z,5.37
2018-08-17T13:20:52.681Z,5.50
2018-08-17T13:23:21.369Z,6.00
2018-08-17T13:25:49.845Z,5.23
2018-08-17T13:28:18.275Z,5.90
2018-08-17T13:30:46.734Z,5.20
2018-08-17T13:33:15.137Z,5.57
2018-08-17T13:35:43.587Z,5.83
2018-08-17T13:38:12.041Z,4.87
2018-08-17T13:40:40.482Z,5.70
2018-08-17T13:43:08.903Z,5.03
2018-08-17T13:45:37.418Z,5.53
2018-08-17T13:48:06.082Z,4.80
2018-08-17T13:50:34.529Z,5.60
2018-08-17T13:53:02.954Z,4.90
2018-08-17T13:55:31.473Z,5.10
2018-08-17T13:57:59.889Z,5.13
2018-08-17T14:00:28.293Z,5.33
2018-08-17T14:02:56.741Z,5.40
2018-08-17T14:05:25.198Z,5.80
2018-08-17T14:07:53.654Z,5.57
2018-08-17T14:10:22.078Z,5.77
2018-08-17T14:12:50.516Z,5.20
2018-08-17T14:15:18.945Z,5.67
2018-08-17T14:17:47.379Z,6.07
2018-08-17T14:20:16.286Z,5.80
2018-08-17T14:22:44.739Z,6.13
2018-08-17T14:25:13.179Z,6.10
2018-08-17T14:27:41.722Z,5.90
2018-08-17T14:30:15.094Z,6.07
2018-08-17T14:32:43.890Z,6.03
2018-08-17T14:35:12.466Z,5.40
2018-08-17T14:37:40.938Z,5.60
2018-08-17T14:40:10.077Z,5.57
2018-08-17T14:42:38.745Z,5.13
2018-08-17T14:45:07.892Z,4.80
2018-08-17T14:47:36.446Z,5.30
2018-08-17T14:50:07.206Z,5.00
2018-08-17T14:52:35.681Z,4.70
2018-08-17T14:55:04.339Z,5.27
2018-08-17T14:57:33.121Z,4.67
2018-08-17T15:00:01.587Z,4.97
2018-08-17T15:02:30.065Z,4.53
2018-08-17T15:04:58.485Z,3.93
2018-08-17T15:07:26.913Z,4.73
2018-08-17T15:09:55.326Z,4.57
2018-08-17T15:12:23.765Z,4.53
2018-08-17T15:14:52.179Z,5.03
2018-08-17T15:17:20.662Z,4.93
2018-08-17T15:19:49.156Z,4.67
2018-08-17T15:22:17.606Z,4.60
2018-08-17T15:24:46.027Z,4.60
2018-08-17T15:27:14.470Z,4.60
2018-08-17T15:29:42.882Z,4.53
2018-08-17T15:32:11.367Z,4.30
2018-08-17T15:34:39.815Z,4.40
2018-08-17T15:37:08.265Z,4.63
2018-08-17T15:39:36.674Z,4.40
2018-08-17T15:42:05.150Z,4.40
2018-08-17T15:44:33.578Z,4.60
2018-08-17T15:47:02.065Z,5.30
2018-08-17T15:49:33.888Z,5.27
2018-08-17T15:52:03.486Z,5.63
2018-08-17T15:54:31.913Z,4.77
2018-08-17T15:57:00.521Z,4.60
2018-08-17T15:59:28.990Z,5.00
2018-08-17T16:01:57.514Z,5.00
2018-08-17T16:04:26.014Z,5.23
2018-08-17T16:06:54.495Z,5.40
2018-08-17T16:09:22.961Z,5.00
2018-08-17T16:11:51.439Z,5.17
2018-08-17T16:14:19.890Z,4.43
2018-08-17T16:16:48.355Z,5.60
2018-08-17T16:19:16.782Z,5.23
2018-08-17T16:21:45.237Z,4.77
2018-08-17T16:24:13.662Z,5.00
2018-08-17T16:26:42.141Z,5.47
2018-08-17T16:29:10.593Z,4.57
2018-08-17T16:31:41.726Z,5.30
2018-08-17T16:34:12.094Z,5.20
2018-08-17T16:36:42.218Z,5.10
2018-08-17T16:39:16.113Z,4.97
2018-08-17T16:41:44.625Z,5.00
2018-08-17T16:44:13.717Z,5.43
2018-08-17T16:46:43.022Z,5.20
2018-08-17T16:49:11.509Z,4.93
2018-08-17T16:51:40.172Z,5.40
2018-08-17T16:54:08.697Z,5.23
2018-08-17T16:56:37.438Z,5.00
2018-08-17T16:59:06.064Z,5.43
2018-08-17T17:01:34.477Z,5.00
2018-08-17T17:04:02.945Z,4.90
2018-08-17T17:06:31.469Z,4.20
2018-08-17T17:09:05.979Z,4.83
2018-08-17T17:11:34.650Z,5.00
2018-08-17T17:14:03.264Z,4.70
2018-08-17T17:16:39.815Z,4.90
2018-08-17T17:19:16.450Z,5.17
2018-08-17T17:21:46.114Z,5.60
2018-08-17T17:24:14.645Z,4.87
2018-08-17T17:26:43.601Z,5.17
2018-08-17T17:29:12.092Z,5.20
2018-08-17T17:31:41.082Z,5.37
2018-08-17T17:34:10.176Z,5.53
2018-08-17T17:36:39.166Z,5.30
2018-08-17T17:39:10.032Z,5.77
2018-08-17T17:41:38.510Z,5.47
2018-08-17T17:44:07.301Z,5.50
2018-08-17T17:46:35.726Z,5.50
2018-08-17T17:49:04.243Z,5.30
2018-08-17T17:51:32.726Z,6.00
2018-08-17T17:54:01.174Z,5.50
2018-08-17T17:56:29.605Z,5.60
2018-08-17T17:59:03.334Z,5.03
2018-08-17T18:01:31.757Z,6.73
2018-08-17T18:04:00.188Z,5.80
2018-08-17T18:06:28.646Z,6.20
2018-08-17T18:08:59.782Z,6.67
2018-08-17T18:11:28.321Z,6.80
2018-08-17T18:13:56.797Z,6.60
2018-08-17T18:16:25.277Z,6.67
2018-08-17T18:18:53.842Z,6.60
2018-08-17T18:21:23.859Z,7.00
2018-08-17T18:23:56.637Z,6.73
2018-08-17T18:26:27.161Z,6.17
2018-08-17T18:28:55.770Z,7.17
2018-08-17T18:31:24.269Z,6.93
2018-08-17T18:33:52.737Z,7.00
2018-08-17T18:36:21.175Z,6.53
2018-08-17T18:38:49.662Z,7.07
2018-08-17T18:41:18.174Z,6.67
2018-08-17T18:43:46.629Z,7.23
2018-08-17T18:46:15.038Z,6.70
2018-08-17T18:48:43.475Z,8.20
2018-08-17T18:51:11.919Z,7.20
2018-08-17T18:53:40.382Z,6.90
2018-08-17T18:56:08.826Z,6.27
2018-08-17T18:58:37.325Z,6.77
2018-08-17T19:01:05.905Z,6.90
2018-08-17T19:03:34.371Z,6.23
2018-08-17T19:06:02.801Z,6.67
2018-08-17T19:08:31.230Z,6.57
2018-08-17T19:10:59.646Z,6.60
2018-08-17T19:13:28.075Z,6.83
2018-08-17T19:15:56.517Z,7.33
2018-08-17T19:18:30.570Z,6.70
2018-08-17T19:21:04.127Z,6.50
2018-08-17T19:23:32.550Z,7.37
2018-08-17T19:26:00.985Z,7.53
2018-08-17T19:28:29.438Z,7.10
2018-08-17T19:30:57.898Z,8.23
2018-08-17T19:33:26.317Z,8.17
2018-08-17T19:35:54.768Z,8.77
2018-08-17T19:38:23.235Z,9.77
2018-08-17T19:40:51.685Z,9.47
2018-08-17T19:43:20.117Z,10.23
2018-08-17T19:45:48.628Z,11.20
2018-08-17T19:48:17.018Z,9.97
2018-08-17T19:50:45.513Z,10.00
2018-08-17T19:53:13.944Z,10.93
2018-08-17T19:55:42.413Z,9.83
2018-08-17T19:58:10.868Z,11.20
2018-08-17T20:00:39.332Z,10.13
2018-08-17T20:03:07.805Z,10.53
2018-08-17T20:05:36.274Z,11.60
2018-08-17T20:08:04.777Z,11.50
2018-08-17T20:10:33.233Z,10.80
2018-08-17T20:13:01.718Z,10.90
2018-08-17T20:15:30.186Z,10.97
2018-08-17T20:17:58.663Z,10.73
2018-08-17T20:20:27.110Z,11.27
2018-08-17T20:22:59.617Z,11.17
2018-08-17T20:25:28.077Z,11.93
2018-08-17T20:27:56.513Z,12.20
2018-08-17T20:30:25.522Z,11.57
2018-08-17T20:32:53.982Z,11.83
2018-08-17T20:35:22.461Z,11.67
2018-08-17T20:37:52.986Z,10.77
2018-08-17T20:40:22.716Z,12.40
2018-08-17T20:42:51.577Z,12.27
2018-08-17T20:45:21.857Z,12.33
2018-08-17T20:47:50.436Z,11.10
2018-08-17T20:50:19.593Z,11.70
2018-08-17T20:52:56.483Z,12.40
2018-08-17T20:55:24.955Z,12.43
2018-08-17T20:57:54.659Z,13.63
2018-08-17T21:00:24.703Z,13.43
2018-08-17T21:02:53.170Z,11.93
2018-08-17T21:05:21.650Z,12.13
2018-08-17T21:07:50.434Z,13.17
2018-08-17T21:10:19.084Z,12.87
2018-08-17T21:12:48.949Z,13.50
2018-08-17T21:15:17.773Z,13.23
2018-08-17T21:17:46.728Z,13.47
2018-08-17T21:20:15.190Z,13.40
2018-08-17T21:22:43.619Z,13.10
2018-08-17T21:25:12.065Z,12.77
2018-08-17T21:27:40.513Z,13.87
2018-08-17T21:30:09.359Z,13.13
2018-08-17T21:32:37.913Z,12.87
2018-08-17T21:35:07.250Z,13.43
2018-08-17T21:37:35.735Z,12.00
2018-08-17T21:40:04.918Z,12.50
2018-08-17T21:42:33.358Z,12.40
2018-08-17T21:45:01.810Z,12.40
2018-08-17T21:47:30.281Z,12.67
2018-08-17T21:50:04.094Z,11.47
2018-08-17T21:52:32.533Z,13.07
2018-08-17T21:55:00.963Z,12.70
2018-08-17T21:57:29.455Z,12.83
2018-08-17T21:59:57.971Z,12.97
2018-08-17T22:02:26.449Z,12.30
2018-08-17T22:04:54.870Z,13.47
2018-08-17T22:07:24.398Z,12.07
2018-08-17T22:09:53.853Z,12.37
2018-08-17T22:12:22.367Z,11.87
2018-08-17T22:14:50.766Z,11.57
2018-08-17T22:17:31.575Z,11.73
2018-08-17T22:20:00.195Z,11.50
2018-08-17T22:22:28.665Z,12.33
2018-08-17T22:24:58.317Z,11.67
2018-08-17T22:27:27.929Z,12.70
2018-08-17T22:29:57.471Z,11.20
2018-08-17T22:32:26.025Z,11.73
2018-08-17T22:34:54.912Z,11.83
2018-08-17T22:37:23.432Z,11.50
2018-08-17T22:39:51.858Z,12.80
2018-08-17T22:42:21.753Z,11.90
2018-08-17T22:44:50.225Z,12.77
2018-08-17T22:47:22.561Z,13.10
2018-08-17T22:49:51.737Z,12.37
2018-08-17T22:52:20.230Z,12.43
2018-08-17T22:54:55.470Z,12.70
2018-08-17T22:57:24.066Z,11.97
2018-08-17T23:00:09.221Z,12.07
2018-08-17T23:02:38.063Z,11.67
2018-08-17T23:05:08.517Z,11.00
2018-08-17T23:07:37.166Z,11.83
2018-08-17T23:10:06.941Z,11.17
2018-08-17T23:12:35.812Z,12.63
2018-08-17T23:15:05.518Z,13.57
2018-08-17T23:17:34.004Z,12.63
2018-08-17T23:20:02.461Z,11.30
2018-08-17T23:22:30.906Z,11.00
2018-08-17T23:24:59.310Z,10.97
2018-08-17T23:27:27.753Z,11.90
2018-08-17T23:29:56.194Z,11.80
2018-08-17T23:32:24.650Z,11.93
2018-08-17T23:34:53.105Z,13.23
2018-08-17T23:37:21.557Z,13.90
2018-08-17T23:39:49.982Z,14.70
2018-08-17T23:42:18.421Z,15.47
2018-08-17T23:44:46.849Z,15.43
2018-08-17T23:47:15.313Z,14.50
2018-08-17T23:49:43.745Z,15.37
2018-08-17T23:52:12.202Z,15.30
2018-08-17T23:54:40.629Z,14.97
2018-08-17T23:57:09.065Z,14.80
2018-08-17T23:59:37.518Z,15.70
